SBATSBCY

Guest
Details From SBAT - Alta Floresta
To SBCY - Marechal Rondon
Flight Number -
Tags Generated
Created
Modified
Stats Distance 348 nm / 644 km
Max Altitude 0 ft / 0 m
Waypoints 3
Social Downloads 1
Likes 0
Share VATSIM

Download

Looking for another format? Having issues loading an existing format? Contact us
Advertisement - Login to hide

Notes

Generated

Route

SBAT CIA SBCY

ID Type Via Altitude Latitude Longitude Leg Dist Tot Dist Heading (true) Name
O SBAT APT - 0 ft / 0 m -9.87686˚ -56.10986˚ - 0 nm - -
CIA NDB - 0 ft / 0 m -15.65500˚ -56.12017˚ 347 nm 347 nm 180° / 180° CUIABA NDB
O SBCY APT - 0 ft / 0 m -15.64372˚ -56.12163˚ 0 nm 347 nm 353° / 353° -

Altitude Profile

Advertisement - Login to hide

Weather


0- 5 10 15 20 25 30 35+ Temperature / ° C

Clouds and Precipitation
Forecast for 2017-12-13 18:00 UTC. Updated 2 hours ago

Ground ~20,000 ft ~40,000 ft Winds

SBAT

Details ICAO SBAT (AFL)
Name ALTA FLORESTA
Region Brazil
Timezone America/Cuiaba (UTC-3.0)
Stats Elevation 947 ft / 289 m (AMSL)
Location -9.866090° -56.106204°
Runways 1
Magnetic Variation 17.843° W

METAR

Not found

TAF

TAF SBAT 131600Z 1318/1406 34005KT 9999 SCT025 TX32/1318Z TN21/1406Z BECMG 1320/1323 SCT025 FEW030TCU BECMG 1401/1403 SCT015 RMK PEN

Decode

Departure Runways

ID Width Length Bearing (true) Bearing (mag) Surface Threshold Offset Overrun Length
03 100 ft / 30 m 8,288 ft / 2,526 m 18.48° 36.32° Asphalt 1,312 ft / 400 m 190 ft / 58 m
21 100 ft / 30 m 8,288 ft / 2,526 m 198.48° 216.32° Asphalt 0 ft / 0 m 195 ft / 59 m

SBCY

Details ICAO SBCY (CGB)
Name Marechal Rondon
Region Brazil
Timezone America/Cuiaba (UTC-3.0)
Stats Elevation 609 ft / 186 m (AMSL)
Location -15.652930° -56.116720°
Runways 1
Magnetic Variation 17.398° W

METAR

SBCY 131900Z 21008KT 9999 SCT020 SCT060 34/20 Q1008

Decode

TAF

TAF SBCY 131600Z 1318/1418 16010KT 9999 BKN020 TX32/1319Z TN24/1407Z BECMG 1319/1321 06005KT BKN020 FEW025TCU BECMG 1323/1401 FEW020 BECMG 1404/1406 34008KT CAVOK BECMG 1412/1414 35005KT 9999 FEW020 RMK PEN

Decode

Destination Runways

ID Width Length Bearing (true) Bearing (mag) Surface Threshold Offset Overrun Length
17 148 ft / 45 m 7,558 ft / 2,304 m 152.83° 170.23° Asphalt 0 ft / 0 m 190 ft / 58 m
35 148 ft / 45 m 7,558 ft / 2,304 m 332.82° 350.22° Asphalt 0 ft / 0 m 190 ft / 58 m

Approach Navaids

Runway Type Ident Frequency Range Bearing (true) Bearing (mag) Slope Elevation
35 Localiser ICB 109.30 MHz 18 nm / 33 km 333.66° 351.05° - 609 ft / 186 m (AMSL)

Popular Alternatives